sensor_id;sensor_type;location;lat;lon;timestamp;P1;durP1;ratioP1;P2;durP2;ratioP2
3407;SDS011;1717;50.240;8.406;2023-06-26T00:01:06;6.50;;;5.90;;
3407;SDS011;1717;50.240;8.406;2023-06-26T00:03:33;6.60;;;5.43;;
3407;SDS011;1717;50.240;8.406;2023-06-26T00:05:59;6.00;;;5.47;;
3407;SDS011;1717;50.240;8.406;2023-06-26T00:08:26;5.50;;;4.90;;
3407;SDS011;1717;50.240;8.406;2023-06-26T00:10:53;6.90;;;6.20;;
3407;SDS011;1717;50.240;8.406;2023-06-26T00:13:22;6.77;;;6.17;;
3407;SDS011;1717;50.240;8.406;2023-06-26T00:15:49;6.73;;;6.13;;
3407;SDS011;1717;50.240;8.406;2023-06-26T00:18:16;7.17;;;6.47;;
3407;SDS011;1717;50.240;8.406;2023-06-26T00:20:43;5.73;;;5.23;;
3407;SDS011;1717;50.240;8.406;2023-06-26T00:23:11;6.53;;;5.97;;
3407;SDS011;1717;50.240;8.406;2023-06-26T00:25:41;7.07;;;5.60;;
3407;SDS011;1717;50.240;8.406;2023-06-26T00:28:08;7.70;;;6.40;;
3407;SDS011;1717;50.240;8.406;2023-06-26T00:30:37;5.97;;;5.47;;
3407;SDS011;1717;50.240;8.406;2023-06-26T00:33:04;6.30;;;5.80;;
3407;SDS011;1717;50.240;8.406;2023-06-26T00:35:31;6.10;;;5.50;;
3407;SDS011;1717;50.240;8.406;2023-06-26T00:37:57;6.30;;;5.70;;
3407;SDS011;1717;50.240;8.406;2023-06-26T00:40:24;6.17;;;5.67;;
3407;SDS011;1717;50.240;8.406;2023-06-26T00:42:51;7.00;;;6.40;;
3407;SDS011;1717;50.240;8.406;2023-06-26T00:45:18;6.63;;;6.03;;
3407;SDS011;1717;50.240;8.406;2023-06-26T00:47:46;5.83;;;5.27;;
3407;SDS011;1717;50.240;8.406;2023-06-26T00:50:14;5.83;;;5.30;;
3407;SDS011;1717;50.240;8.406;2023-06-26T00:52:42;6.23;;;5.57;;
3407;SDS011;1717;50.240;8.406;2023-06-26T00:55:09;6.40;;;5.80;;
3407;SDS011;1717;50.240;8.406;2023-06-26T00:57:36;6.67;;;6.07;;
3407;SDS011;1717;50.240;8.406;2023-06-26T01:00:04;6.03;;;5.53;;
3407;SDS011;1717;50.240;8.406;2023-06-26T01:02:31;6.80;;;6.20;;
3407;SDS011;1717;50.240;8.406;2023-06-26T01:05:00;6.10;;;5.60;;
3407;SDS011;1717;50.240;8.406;2023-06-26T01:07:31;6.10;;;5.60;;
3407;SDS011;1717;50.240;8.406;2023-06-26T01:10:01;6.33;;;5.73;;
3407;SDS011;1717;50.240;8.406;2023-06-26T01:12:29;5.70;;;5.20;;
3407;SDS011;1717;50.240;8.406;2023-06-26T01:14:57;6.20;;;5.60;;
3407;SDS011;1717;50.240;8.406;2023-06-26T01:17:25;6.10;;;5.50;;
3407;SDS011;1717;50.240;8.406;2023-06-26T01:19:56;6.33;;;5.77;;
3407;SDS011;1717;50.240;8.406;2023-06-26T01:22:27;6.47;;;5.87;;
3407;SDS011;1717;50.240;8.406;2023-06-26T01:25:01;6.90;;;5.90;;
3407;SDS011;1717;50.240;8.406;2023-06-26T01:27:39;6.60;;;6.00;;
3407;SDS011;1717;50.240;8.406;2023-06-26T01:30:08;6.90;;;6.30;;
3407;SDS011;1717;50.240;8.406;2023-06-26T01:32:35;6.37;;;5.77;;
3407;SDS011;1717;50.240;8.406;2023-06-26T01:35:04;7.17;;;6.47;;
3407;SDS011;1717;50.240;8.406;2023-06-26T01:37:33;6.03;;;5.47;;
3407;SDS011;1717;50.240;8.406;2023-06-26T01:39:59;6.50;;;5.90;;
3407;SDS011;1717;50.240;8.406;2023-06-26T01:42:26;6.43;;;5.73;;
3407;SDS011;1717;50.240;8.406;2023-06-26T01:44:55;6.77;;;6.17;;
3407;SDS011;1717;50.240;8.406;2023-06-26T01:47:24;7.13;;;6.43;;
3407;SDS011;1717;50.240;8.406;2023-06-26T01:49:54;6.60;;;5.93;;
3407;SDS011;1717;50.240;8.406;2023-06-26T01:52:27;7.50;;;6.80;;
3407;SDS011;1717;50.240;8.406;2023-06-26T01:55:05;7.67;;;6.97;;
3407;SDS011;1717;50.240;8.406;2023-06-26T01:57:38;7.87;;;7.13;;
3407;SDS011;1717;50.240;8.406;2023-06-26T02:00:09;6.83;;;6.23;;
3407;SDS011;1717;50.240;8.406;2023-06-26T02:02:37;6.40;;;5.90;;
3407;SDS011;1717;50.240;8.406;2023-06-26T02:05:03;7.50;;;6.80;;
3407;SDS011;1717;50.240;8.406;2023-06-26T02:07:30;7.83;;;6.87;;
3407;SDS011;1717;50.240;8.406;2023-06-26T02:09:57;5.87;;;5.33;;
3407;SDS011;1717;50.240;8.406;2023-06-26T02:12:24;8.67;;;6.20;;
3407;SDS011;1717;50.240;8.406;2023-06-26T02:14:51;7.10;;;6.43;;
3407;SDS011;1717;50.240;8.406;2023-06-26T02:17:19;6.37;;;5.77;;
3407;SDS011;1717;50.240;8.406;2023-06-26T02:19:46;7.60;;;5.67;;
3407;SDS011;1717;50.240;8.406;2023-06-26T02:22:13;6.77;;;6.07;;
3407;SDS011;1717;50.240;8.406;2023-06-26T02:24:40;6.77;;;6.17;;
3407;SDS011;1717;50.240;8.406;2023-06-26T02:27:07;6.53;;;6.03;;
3407;SDS011;1717;50.240;8.406;2023-06-26T02:29:34;6.80;;;6.20;;
3407;SDS011;1717;50.240;8.406;2023-06-26T02:32:01;6.63;;;6.03;;
3407;SDS011;1717;50.240;8.406;2023-06-26T02:34:29;7.03;;;6.33;;
3407;SDS011;1717;50.240;8.406;2023-06-26T02:36:56;6.37;;;5.77;;
3407;SDS011;1717;50.240;8.406;2023-06-26T02:39:23;6.17;;;5.57;;
3407;SDS011;1717;50.240;8.406;2023-06-26T02:41:50;6.50;;;5.90;;
3407;SDS011;1717;50.240;8.406;2023-06-26T02:44:17;5.80;;;5.40;;
3407;SDS011;1717;50.240;8.406;2023-06-26T02:46:44;8.73;;;7.07;;
3407;SDS011;1717;50.240;8.406;2023-06-26T02:49:10;6.77;;;6.17;;
3407;SDS011;1717;50.240;8.406;2023-06-26T02:51:38;6.37;;;5.77;;
3407;SDS011;1717;50.240;8.406;2023-06-26T02:54:05;7.33;;;6.63;;
3407;SDS011;1717;50.240;8.406;2023-06-26T02:56:32;6.50;;;5.90;;
3407;SDS011;1717;50.240;8.406;2023-06-26T02:58:59;5.97;;;5.47;;
3407;SDS011;1717;50.240;8.406;2023-06-26T03:01:25;6.07;;;5.57;;
3407;SDS011;1717;50.240;8.406;2023-06-26T03:03:52;7.50;;;6.70;;
3407;SDS011;1717;50.240;8.406;2023-06-26T03:06:19;6.23;;;5.70;;
3407;SDS011;1717;50.240;8.406;2023-06-26T03:08:47;8.20;;;7.30;;
3407;SDS011;1717;50.240;8.406;2023-06-26T03:11:14;7.10;;;6.40;;
3407;SDS011;1717;50.240;8.406;2023-06-26T03:13:41;9.07;;;6.00;;
3407;SDS011;1717;50.240;8.406;2023-06-26T03:16:08;6.33;;;5.73;;
3407;SDS011;1717;50.240;8.406;2023-06-26T03:18:35;6.43;;;5.83;;
3407;SDS011;1717;50.240;8.406;2023-06-26T03:21:01;6.57;;;5.97;;
3407;SDS011;1717;50.240;8.406;2023-06-26T03:23:29;6.70;;;6.00;;
3407;SDS011;1717;50.240;8.406;2023-06-26T03:25:57;6.80;;;6.00;;
3407;SDS011;1717;50.240;8.406;2023-06-26T03:28:23;6.50;;;5.87;;
3407;SDS011;1717;50.240;8.406;2023-06-26T03:30:50;7.03;;;6.33;;
3407;SDS011;1717;50.240;8.406;2023-06-26T03:33:17;6.93;;;6.23;;
3407;SDS011;1717;50.240;8.406;2023-06-26T03:35:44;7.80;;;7.10;;
3407;SDS011;1717;50.240;8.406;2023-06-26T03:38:11;6.50;;;5.90;;
3407;SDS011;1717;50.240;8.406;2023-06-26T03:40:37;6.80;;;6.20;;
3407;SDS011;1717;50.240;8.406;2023-06-26T03:43:06;6.53;;;5.93;;
3407;SDS011;1717;50.240;8.406;2023-06-26T03:45:32;7.20;;;6.60;;
3407;SDS011;1717;50.240;8.406;2023-06-26T03:47:59;6.03;;;5.43;;
3407;SDS011;1717;50.240;8.406;2023-06-26T03:50:26;6.33;;;5.73;;
3407;SDS011;1717;50.240;8.406;2023-06-26T03:52:53;7.50;;;6.30;;
3407;SDS011;1717;50.240;8.406;2023-06-26T03:55:19;8.50;;;7.13;;
3407;SDS011;1717;50.240;8.406;2023-06-26T03:57:47;8.30;;;6.80;;
3407;SDS011;1717;50.240;8.406;2023-06-26T04:00:16;7.90;;;6.90;;
3407;SDS011;1717;50.240;8.406;2023-06-26T04:02:43;7.37;;;6.67;;
3407;SDS011;1717;50.240;8.406;2023-06-26T04:05:10;6.67;;;6.03;;
3407;SDS011;1717;50.240;8.406;2023-06-26T04:07:37;7.10;;;6.40;;
3407;SDS011;1717;50.240;8.406;2023-06-26T04:10:04;7.20;;;6.50;;
3407;SDS011;1717;50.240;8.406;2023-06-26T04:12:32;7.00;;;6.33;;
3407;SDS011;1717;50.240;8.406;2023-06-26T04:14:59;7.50;;;6.83;;
3407;SDS011;1717;50.240;8.406;2023-06-26T04:17:27;6.47;;;5.87;;
3407;SDS011;1717;50.240;8.406;2023-06-26T04:19:54;7.40;;;6.70;;
3407;SDS011;1717;50.240;8.406;2023-06-26T04:22:20;6.57;;;5.77;;
3407;SDS011;1717;50.240;8.406;2023-06-26T04:24:47;6.17;;;5.67;;
3407;SDS011;1717;50.240;8.406;2023-06-26T04:27:14;6.50;;;5.90;;
3407;SDS011;1717;50.240;8.406;2023-06-26T04:29:41;6.20;;;5.60;;
3407;SDS011;1717;50.240;8.406;2023-06-26T04:32:08;6.57;;;6.00;;
3407;SDS011;1717;50.240;8.406;2023-06-26T04:34:36;6.83;;;6.13;;
3407;SDS011;1717;50.240;8.406;2023-06-26T04:37:06;6.10;;;5.50;;
3407;SDS011;1717;50.240;8.406;2023-06-26T04:39:34;7.10;;;6.50;;
3407;SDS011;1717;50.240;8.406;2023-06-26T04:42:02;6.33;;;5.73;;
3407;SDS011;1717;50.240;8.406;2023-06-26T04:44:29;7.20;;;6.50;;
3407;SDS011;1717;50.240;8.406;2023-06-26T04:46:56;6.50;;;5.90;;
3407;SDS011;1717;50.240;8.406;2023-06-26T04:49:22;5.93;;;5.33;;
3407;SDS011;1717;50.240;8.406;2023-06-26T04:51:50;6.83;;;6.13;;
3407;SDS011;1717;50.240;8.406;2023-06-26T04:54:18;6.77;;;6.17;;
3407;SDS011;1717;50.240;8.406;2023-06-26T04:56:45;6.83;;;6.23;;
3407;SDS011;1717;50.240;8.406;2023-06-26T04:59:13;6.63;;;5.97;;
3407;SDS011;1717;50.240;8.406;2023-06-26T05:01:40;6.90;;;6.20;;
3407;SDS011;1717;50.240;8.406;2023-06-26T05:04:07;7.37;;;6.57;;
3407;SDS011;1717;50.240;8.406;2023-06-26T05:06:34;8.40;;;5.17;;
3407;SDS011;1717;50.240;8.406;2023-06-26T05:09:02;7.13;;;6.40;;
3407;SDS011;1717;50.240;8.406;2023-06-26T05:11:29;7.20;;;6.50;;
3407;SDS011;1717;50.240;8.406;2023-06-26T05:13:56;6.80;;;6.13;;
3407;SDS011;1717;50.240;8.406;2023-06-26T05:16:23;6.47;;;5.87;;
3407;SDS011;1717;50.240;8.406;2023-06-26T05:18:49;6.63;;;6.03;;
3407;SDS011;1717;50.240;8.406;2023-06-26T05:21:16;7.00;;;6.43;;
3407;SDS011;1717;50.240;8.406;2023-06-26T05:23:43;7.37;;;6.67;;
3407;SDS011;1717;50.240;8.406;2023-06-26T05:26:14;6.13;;;5.63;;
3407;SDS011;1717;50.240;8.406;2023-06-26T05:28:41;7.23;;;6.60;;
3407;SDS011;1717;50.240;8.406;2023-06-26T05:31:13;7.57;;;6.87;;
3407;SDS011;1717;50.240;8.406;2023-06-26T05:33:40;7.67;;;6.33;;
3407;SDS011;1717;50.240;8.406;2023-06-26T05:36:09;6.97;;;6.27;;
3407;SDS011;1717;50.240;8.406;2023-06-26T05:38:38;6.73;;;6.13;;
3407;SDS011;1717;50.240;8.406;2023-06-26T05:41:06;7.73;;;6.80;;
3407;SDS011;1717;50.240;8.406;2023-06-26T05:43:34;6.70;;;6.00;;
3407;SDS011;1717;50.240;8.406;2023-06-26T05:46:01;6.90;;;6.20;;
3407;SDS011;1717;50.240;8.406;2023-06-26T05:48:28;7.23;;;5.83;;
3407;SDS011;1717;50.240;8.406;2023-06-26T05:50:55;8.27;;;7.40;;
3407;SDS011;1717;50.240;8.406;2023-06-26T05:53:22;6.87;;;6.20;;
3407;SDS011;1717;50.240;8.406;2023-06-26T05:55:49;6.80;;;6.10;;
3407;SDS011;1717;50.240;8.406;2023-06-26T05:58:17;6.50;;;5.90;;
3407;SDS011;1717;50.240;8.406;2023-06-26T06:00:47;6.70;;;6.07;;
3407;SDS011;1717;50.240;8.406;2023-06-26T06:03:14;7.00;;;6.30;;
3407;SDS011;1717;50.240;8.406;2023-06-26T06:05:41;8.90;;;6.63;;
3407;SDS011;1717;50.240;8.406;2023-06-26T06:08:07;8.10;;;6.50;;
3407;SDS011;1717;50.240;8.406;2023-06-26T06:10:34;8.97;;;6.67;;
3407;SDS011;1717;50.240;8.406;2023-06-26T06:13:01;8.10;;;7.10;;
3407;SDS011;1717;50.240;8.406;2023-06-26T06:15:28;7.13;;;6.43;;
3407;SDS011;1717;50.240;8.406;2023-06-26T06:17:56;9.63;;;7.07;;
3407;SDS011;1717;50.240;8.406;2023-06-26T06:20:23;7.17;;;6.47;;
3407;SDS011;1717;50.240;8.406;2023-06-26T06:22:50;7.47;;;6.87;;
3407;SDS011;1717;50.240;8.406;2023-06-26T06:25:17;6.80;;;6.20;;
3407;SDS011;1717;50.240;8.406;2023-06-26T06:27:44;8.77;;;6.73;;
3407;SDS011;1717;50.240;8.406;2023-06-26T06:30:11;8.10;;;6.80;;
3407;SDS011;1717;50.240;8.406;2023-06-26T06:32:39;8.00;;;6.93;;
3407;SDS011;1717;50.240;8.406;2023-06-26T06:35:07;7.70;;;6.90;;
3407;SDS011;1717;50.240;8.406;2023-06-26T06:37:35;7.70;;;7.00;;
3407;SDS011;1717;50.240;8.406;2023-06-26T06:40:02;7.57;;;6.83;;
3407;SDS011;1717;50.240;8.406;2023-06-26T06:42:31;8.10;;;7.30;;
3407;SDS011;1717;50.240;8.406;2023-06-26T06:44:58;8.47;;;7.50;;
3407;SDS011;1717;50.240;8.406;2023-06-26T06:47:24;8.37;;;6.83;;
3407;SDS011;1717;50.240;8.406;2023-06-26T06:49:51;8.10;;;7.30;;
3407;SDS011;1717;50.240;8.406;2023-06-26T06:52:20;9.70;;;7.20;;
3407;SDS011;1717;50.240;8.406;2023-06-26T06:54:53;9.13;;;8.20;;
3407;SDS011;1717;50.240;8.406;2023-06-26T06:57:21;8.97;;;8.10;;
3407;SDS011;1717;50.240;8.406;2023-06-26T06:59:48;8.50;;;7.80;;
3407;SDS011;1717;50.240;8.406;2023-06-26T07:02:16;7.83;;;7.13;;
3407;SDS011;1717;50.240;8.406;2023-06-26T07:04:43;8.53;;;7.63;;
3407;SDS011;1717;50.240;8.406;2023-06-26T07:07:10;9.70;;;8.73;;
3407;SDS011;1717;50.240;8.406;2023-06-26T07:09:40;9.03;;;8.03;;
3407;SDS011;1717;50.240;8.406;2023-06-26T07:12:07;9.57;;;8.70;;
3407;SDS011;1717;50.240;8.406;2023-06-26T07:14:34;9.43;;;7.30;;
3407;SDS011;1717;50.240;8.406;2023-06-26T07:17:00;8.77;;;7.87;;
3407;SDS011;1717;50.240;8.406;2023-06-26T07:19:27;9.17;;;8.27;;
3407;SDS011;1717;50.240;8.406;2023-06-26T07:21:54;8.80;;;7.90;;
3407;SDS011;1717;50.240;8.406;2023-06-26T07:24:21;8.53;;;7.73;;
3407;SDS011;1717;50.240;8.406;2023-06-26T07:26:49;7.93;;;7.13;;
3407;SDS011;1717;50.240;8.406;2023-06-26T07:29:16;8.00;;;7.30;;
3407;SDS011;1717;50.240;8.406;2023-06-26T07:31:43;8.87;;;8.00;;
3407;SDS011;1717;50.240;8.406;2023-06-26T07:34:10;11.53;;;7.33;;
3407;SDS011;1717;50.240;8.406;2023-06-26T07:36:37;9.43;;;8.47;;
3407;SDS011;1717;50.240;8.406;2023-06-26T07:39:04;11.23;;;7.87;;
3407;SDS011;1717;50.240;8.406;2023-06-26T07:41:31;9.37;;;8.40;;
3407;SDS011;1717;50.240;8.406;2023-06-26T07:43:59;8.83;;;8.03;;
3407;SDS011;1717;50.240;8.406;2023-06-26T07:46:26;9.27;;;8.37;;
3407;SDS011;1717;50.240;8.406;2023-06-26T07:48:53;9.30;;;8.40;;
3407;SDS011;1717;50.240;8.406;2023-06-26T07:51:19;10.60;;;8.50;;
3407;SDS011;1717;50.240;8.406;2023-06-26T07:53:46;9.37;;;7.13;;
3407;SDS011;1717;50.240;8.406;2023-06-26T07:56:13;9.87;;;7.33;;
3407;SDS011;1717;50.240;8.406;2023-06-26T07:58:40;8.40;;;7.60;;
3407;SDS011;1717;50.240;8.406;2023-06-26T08:01:08;7.70;;;7.00;;
3407;SDS011;1717;50.240;8.406;2023-06-26T08:03:36;8.83;;;8.00;;
3407;SDS011;1717;50.240;8.406;2023-06-26T08:06:03;9.53;;;8.63;;
3407;SDS011;1717;50.240;8.406;2023-06-26T08:08:30;8.83;;;8.03;;
3407;SDS011;1717;50.240;8.406;2023-06-26T08:10:57;8.43;;;7.70;;
3407;SDS011;1717;50.240;8.406;2023-06-26T08:13:24;9.70;;;8.53;;
3407;SDS011;1717;50.240;8.406;2023-06-26T08:15:51;9.70;;;7.87;;
3407;SDS011;1717;50.240;8.406;2023-06-26T08:18:19;9.20;;;8.40;;
3407;SDS011;1717;50.240;8.406;2023-06-26T08:20:46;9.00;;;8.20;;
3407;SDS011;1717;50.240;8.406;2023-06-26T08:23:13;10.47;;;8.03;;
3407;SDS011;1717;50.240;8.406;2023-06-26T08:25:40;7.60;;;6.90;;
3407;SDS011;1717;50.240;8.406;2023-06-26T08:28:06;8.80;;;8.00;;
3407;SDS011;1717;50.240;8.406;2023-06-26T08:30:33;8.63;;;7.80;;
3407;SDS011;1717;50.240;8.406;2023-06-26T08:33:00;10.37;;;8.50;;
3407;SDS011;1717;50.240;8.406;2023-06-26T08:35:29;10.33;;;8.90;;
3407;SDS011;1717;50.240;8.406;2023-06-26T08:37:56;9.67;;;7.53;;
3407;SDS011;1717;50.240;8.406;2023-06-26T08:40:22;8.50;;;7.50;;
3407;SDS011;1717;50.240;8.406;2023-06-26T08:42:50;10.73;;;6.87;;
3407;SDS011;1717;50.240;8.406;2023-06-26T08:45:18;8.40;;;7.43;;
3407;SDS011;1717;50.240;8.406;2023-06-26T08:47:45;8.40;;;7.60;;
3407;SDS011;1717;50.240;8.406;2023-06-26T08:50:17;9.30;;;7.97;;
3407;SDS011;1717;50.240;8.406;2023-06-26T08:52:50;9.90;;;9.00;;
3407;SDS011;1717;50.240;8.406;2023-06-26T08:55:23;9.20;;;8.40;;
3407;SDS011;1717;50.240;8.406;2023-06-26T08:57:52;8.83;;;8.10;;
3407;SDS011;1717;50.240;8.406;2023-06-26T09:00:19;8.60;;;7.80;;
3407;SDS011;1717;50.240;8.406;2023-06-26T09:02:46;9.50;;;8.10;;
3407;SDS011;1717;50.240;8.406;2023-06-26T09:05:13;10.23;;;9.23;;
3407;SDS011;1717;50.240;8.406;2023-06-26T09:07:40;9.63;;;8.70;;
3407;SDS011;1717;50.240;8.406;2023-06-26T09:10:09;8.43;;;7.73;;
3407;SDS011;1717;50.240;8.406;2023-06-26T09:12:36;10.00;;;8.73;;
3407;SDS011;1717;50.240;8.406;2023-06-26T09:15:04;9.50;;;8.50;;
3407;SDS011;1717;50.240;8.406;2023-06-26T09:17:33;9.20;;;8.30;;
3407;SDS011;1717;50.240;8.406;2023-06-26T09:20:06;10.77;;;8.57;;
3407;SDS011;1717;50.240;8.406;2023-06-26T09:22:35;9.40;;;8.57;;
3407;SDS011;1717;50.240;8.406;2023-06-26T09:25:04;9.10;;;8.40;;
3407;SDS011;1717;50.240;8.406;2023-06-26T09:27:33;8.87;;;8.07;;
3407;SDS011;1717;50.240;8.406;2023-06-26T09:30:01;10.27;;;9.37;;
3407;SDS011;1717;50.240;8.406;2023-06-26T09:32:29;11.43;;;9.50;;
3407;SDS011;1717;50.240;8.406;2023-06-26T09:34:56;9.33;;;8.63;;
3407;SDS011;1717;50.240;8.406;2023-06-26T09:37:25;10.60;;;9.63;;
3407;SDS011;1717;50.240;8.406;2023-06-26T09:39:52;9.50;;;8.60;;
3407;SDS011;1717;50.240;8.406;2023-06-26T09:42:19;9.20;;;8.40;;
3407;SDS011;1717;50.240;8.406;2023-06-26T09:44:47;10.67;;;9.77;;
3407;SDS011;1717;50.240;8.406;2023-06-26T09:47:16;8.93;;;8.13;;
3407;SDS011;1717;50.240;8.406;2023-06-26T09:49:44;10.07;;;9.23;;
3407;SDS011;1717;50.240;8.406;2023-06-26T09:52:13;8.47;;;7.77;;
3407;SDS011;1717;50.240;8.406;2023-06-26T09:54:41;8.47;;;7.50;;
3407;SDS011;1717;50.240;8.406;2023-06-26T09:57:10;10.80;;;7.87;;
3407;SDS011;1717;50.240;8.406;2023-06-26T09:59:39;6.80;;;6.20;;
3407;SDS011;1717;50.240;8.406;2023-06-26T10:02:07;8.53;;;7.67;;
3407;SDS011;1717;50.240;8.406;2023-06-26T10:04:35;11.30;;;8.93;;
3407;SDS011;1717;50.240;8.406;2023-06-26T10:07:04;8.60;;;7.90;;
3407;SDS011;1717;50.240;8.406;2023-06-26T10:09:32;9.10;;;8.07;;
3407;SDS011;1717;50.240;8.406;2023-06-26T10:12:02;8.43;;;7.20;;
3407;SDS011;1717;50.240;8.406;2023-06-26T10:14:31;8.60;;;7.80;;
3407;SDS011;1717;50.240;8.406;2023-06-26T10:17:01;7.63;;;7.00;;
3407;SDS011;1717;50.240;8.406;2023-06-26T10:19:33;7.57;;;6.97;;
3407;SDS011;1717;50.240;8.406;2023-06-26T10:22:02;10.80;;;8.23;;
3407;SDS011;1717;50.240;8.406;2023-06-26T10:24:31;8.90;;;8.00;;
3407;SDS011;1717;50.240;8.406;2023-06-26T10:27:02;8.70;;;7.90;;
3407;SDS011;1717;50.240;8.406;2023-06-26T10:29:36;10.73;;;8.00;;
3407;SDS011;1717;50.240;8.406;2023-06-26T10:32:04;7.60;;;6.90;;
3407;SDS011;1717;50.240;8.406;2023-06-26T10:34:31;9.33;;;8.17;;
3407;SDS011;1717;50.240;8.406;2023-06-26T10:37:00;11.73;;;7.10;;
3407;SDS011;1717;50.240;8.406;2023-06-26T10:39:32;8.90;;;8.00;;
3407;SDS011;1717;50.240;8.406;2023-06-26T10:42:14;8.70;;;7.80;;
3407;SDS011;1717;50.240;8.406;2023-06-26T10:44:42;9.10;;;8.10;;
3407;SDS011;1717;50.240;8.406;2023-06-26T10:47:09;8.90;;;8.10;;
3407;SDS011;1717;50.240;8.406;2023-06-26T10:49:38;8.17;;;7.47;;
3407;SDS011;1717;50.240;8.406;2023-06-26T10:52:05;8.00;;;7.30;;
3407;SDS011;1717;50.240;8.406;2023-06-26T10:54:32;8.47;;;7.67;;
3407;SDS011;1717;50.240;8.406;2023-06-26T10:56:59;12.33;;;7.30;;
3407;SDS011;1717;50.240;8.406;2023-06-26T10:59:28;8.73;;;7.93;;
3407;SDS011;1717;50.240;8.406;2023-06-26T11:01:57;9.60;;;7.20;;
3407;SDS011;1717;50.240;8.406;2023-06-26T11:04:39;8.43;;;7.60;;
3407;SDS011;1717;50.240;8.406;2023-06-26T11:07:17;7.67;;;6.97;;
3407;SDS011;1717;50.240;8.406;2023-06-26T11:09:55;6.80;;;6.10;;
3407;SDS011;1717;50.240;8.406;2023-06-26T11:12:38;9.73;;;7.20;;
3407;SDS011;1717;50.240;8.406;2023-06-26T11:15:07;7.33;;;6.50;;
3407;SDS011;1717;50.240;8.406;2023-06-26T11:17:35;6.63;;;6.00;;
3407;SDS011;1717;50.240;8.406;2023-06-26T11:20:03;7.57;;;6.80;;
3407;SDS011;1717;50.240;8.406;2023-06-26T11:22:34;7.90;;;7.10;;
3407;SDS011;1717;50.240;8.406;2023-06-26T11:25:10;7.57;;;6.87;;
3407;SDS011;1717;50.240;8.406;2023-06-26T11:27:40;7.03;;;6.30;;
3407;SDS011;1717;50.240;8.406;2023-06-26T11:30:08;9.97;;;6.60;;
3407;SDS011;1717;50.240;8.406;2023-06-26T11:32:36;7.03;;;6.27;;
3407;SDS011;1717;50.240;8.406;2023-06-26T11:35:03;10.33;;;5.87;;
3407;SDS011;1717;50.240;8.406;2023-06-26T11:37:32;10.37;;;5.67;;
3407;SDS011;1717;50.240;8.406;2023-06-26T11:39:59;6.60;;;5.97;;
3407;SDS011;1717;50.240;8.406;2023-06-26T11:42:43;9.77;;;6.73;;
3407;SDS011;1717;50.240;8.406;2023-06-26T11:45:10;6.80;;;6.20;;
3407;SDS011;1717;50.240;8.406;2023-06-26T11:47:38;7.57;;;6.67;;
3407;SDS011;1717;50.240;8.406;2023-06-26T11:50:05;6.00;;;5.50;;
3407;SDS011;1717;50.240;8.406;2023-06-26T11:52:33;6.93;;;6.10;;
3407;SDS011;1717;50.240;8.406;2023-06-26T11:55:00;7.07;;;6.17;;
3407;SDS011;1717;50.240;8.406;2023-06-26T11:57:27;8.27;;;6.80;;
3407;SDS011;1717;50.240;8.406;2023-06-26T11:59:58;8.63;;;7.73;;
3407;SDS011;1717;50.240;8.406;2023-06-26T12:02:37;9.30;;;6.77;;
3407;SDS011;1717;50.240;8.406;2023-06-26T12:05:05;8.30;;;6.93;;
3407;SDS011;1717;50.240;8.406;2023-06-26T12:07:33;11.13;;;6.50;;
3407;SDS011;1717;50.240;8.406;2023-06-26T12:10:01;9.67;;;7.03;;
3407;SDS011;1717;50.240;8.406;2023-06-26T12:12:30;9.30;;;6.80;;
3407;SDS011;1717;50.240;8.406;2023-06-26T12:14:59;9.73;;;7.37;;
3407;SDS011;1717;50.240;8.406;2023-06-26T12:17:27;7.73;;;7.03;;
3407;SDS011;1717;50.240;8.406;2023-06-26T12:19:54;13.33;;;7.53;;
3407;SDS011;1717;50.240;8.406;2023-06-26T12:22:21;8.03;;;7.23;;
3407;SDS011;1717;50.240;8.406;2023-06-26T12:24:48;8.40;;;7.07;;
3407;SDS011;1717;50.240;8.406;2023-06-26T12:27:16;7.30;;;6.40;;
3407;SDS011;1717;50.240;8.406;2023-06-26T12:29:47;7.80;;;6.73;;
3407;SDS011;1717;50.240;8.406;2023-06-26T12:32:18;6.90;;;6.23;;
3407;SDS011;1717;50.240;8.406;2023-06-26T12:34:46;7.73;;;6.93;;
3407;SDS011;1717;50.240;8.406;2023-06-26T12:37:15;8.60;;;6.90;;
3407;SDS011;1717;50.240;8.406;2023-06-26T12:39:47;7.23;;;6.50;;
3407;SDS011;1717;50.240;8.406;2023-06-26T12:42:15;14.40;;;8.37;;
3407;SDS011;1717;50.240;8.406;2023-06-26T12:44:42;9.17;;;5.93;;
3407;SDS011;1717;50.240;8.406;2023-06-26T12:47:10;7.10;;;6.40;;
3407;SDS011;1717;50.240;8.406;2023-06-26T12:49:40;7.73;;;6.50;;
3407;SDS011;1717;50.240;8.406;2023-06-26T12:52:09;8.20;;;5.93;;
3407;SDS011;1717;50.240;8.406;2023-06-26T12:54:37;7.20;;;5.73;;
3407;SDS011;1717;50.240;8.406;2023-06-26T12:57:05;12.50;;;6.27;;
3407;SDS011;1717;50.240;8.406;2023-06-26T12:59:32;10.00;;;5.40;;
3407;SDS011;1717;50.240;8.406;2023-06-26T13:02:00;6.30;;;5.73;;
3407;SDS011;1717;50.240;8.406;2023-06-26T13:04:27;6.90;;;5.83;;
3407;SDS011;1717;50.240;8.406;2023-06-26T13:06:56;6.00;;;5.50;;
3407;SDS011;1717;50.240;8.406;2023-06-26T13:09:23;7.03;;;5.90;;
3407;SDS011;1717;50.240;8.406;2023-06-26T13:11:51;6.40;;;5.37;;
3407;SDS011;1717;50.240;8.406;2023-06-26T13:14:18;7.93;;;5.90;;
3407;SDS011;1717;50.240;8.406;2023-06-26T13:16:46;6.53;;;5.70;;
3407;SDS011;1717;50.240;8.406;2023-06-26T13:19:13;6.47;;;5.90;;
3407;SDS011;1717;50.240;8.406;2023-06-26T13:21:40;5.50;;;5.00;;
3407;SDS011;1717;50.240;8.406;2023-06-26T13:24:09;5.93;;;5.07;;
3407;SDS011;1717;50.240;8.406;2023-06-26T13:26:36;8.80;;;5.20;;
3407;SDS011;1717;50.240;8.406;2023-06-26T13:29:03;8.93;;;6.27;;
3407;SDS011;1717;50.240;8.406;2023-06-26T13:31:30;5.60;;;4.37;;
3407;SDS011;1717;50.240;8.406;2023-06-26T13:33:57;8.37;;;4.83;;
3407;SDS011;1717;50.240;8.406;2023-06-26T13:36:25;5.00;;;3.70;;
3407;SDS011;1717;50.240;8.406;2023-06-26T13:38:52;5.20;;;4.70;;
3407;SDS011;1717;50.240;8.406;2023-06-26T13:41:21;7.67;;;4.60;;
3407;SDS011;1717;50.240;8.406;2023-06-26T13:43:48;5.60;;;3.90;;
3407;SDS011;1717;50.240;8.406;2023-06-26T13:46:15;7.90;;;4.30;;
3407;SDS011;1717;50.240;8.406;2023-06-26T13:48:43;6.97;;;4.37;;
3407;SDS011;1717;50.240;8.406;2023-06-26T13:51:10;6.63;;;4.30;;
3407;SDS011;1717;50.240;8.406;2023-06-26T13:53:37;3.73;;;3.30;;
3407;SDS011;1717;50.240;8.406;2023-06-26T13:56:03;6.57;;;3.77;;
3407;SDS011;1717;50.240;8.406;2023-06-26T13:58:34;6.80;;;3.97;;
3407;SDS011;1717;50.240;8.406;2023-06-26T14:01:01;5.13;;;3.60;;
3407;SDS011;1717;50.240;8.406;2023-06-26T14:03:29;10.13;;;4.50;;
3407;SDS011;1717;50.240;8.406;2023-06-26T14:05:55;4.67;;;3.67;;
3407;SDS011;1717;50.240;8.406;2023-06-26T14:08:22;4.70;;;3.80;;
3407;SDS011;1717;50.240;8.406;2023-06-26T14:10:49;3.67;;;3.30;;
3407;SDS011;1717;50.240;8.406;2023-06-26T14:13:16;4.17;;;3.00;;
3407;SDS011;1717;50.240;8.406;2023-06-26T14:15:44;4.10;;;2.87;;
3407;SDS011;1717;50.240;8.406;2023-06-26T14:18:11;4.33;;;3.60;;
3407;SDS011;1717;50.240;8.406;2023-06-26T14:20:38;8.60;;;4.00;;
3407;SDS011;1717;50.240;8.406;2023-06-26T14:23:06;5.27;;;3.00;;
3407;SDS011;1717;50.240;8.406;2023-06-26T14:25:32;4.40;;;2.90;;
3407;SDS011;1717;50.240;8.406;2023-06-26T14:27:59;5.07;;;2.70;;
3407;SDS011;1717;50.240;8.406;2023-06-26T14:30:26;7.27;;;2.63;;
3407;SDS011;1717;50.240;8.406;2023-06-26T14:32:54;3.47;;;2.83;;
3407;SDS011;1717;50.240;8.406;2023-06-26T14:35:21;6.50;;;3.13;;
3407;SDS011;1717;50.240;8.406;2023-06-26T14:37:48;6.17;;;3.30;;
3407;SDS011;1717;50.240;8.406;2023-06-26T14:40:15;3.40;;;2.30;;
3407;SDS011;1717;50.240;8.406;2023-06-26T14:42:42;3.70;;;2.53;;
3407;SDS011;1717;50.240;8.406;2023-06-26T14:45:10;6.70;;;3.10;;
3407;SDS011;1717;50.240;8.406;2023-06-26T14:47:37;3.93;;;3.00;;
3407;SDS011;1717;50.240;8.406;2023-06-26T14:50:06;4.60;;;2.70;;
3407;SDS011;1717;50.240;8.406;2023-06-26T14:52:34;7.00;;;2.30;;
3407;SDS011;1717;50.240;8.406;2023-06-26T14:55:00;3.80;;;2.67;;
3407;SDS011;1717;50.240;8.406;2023-06-26T14:57:27;4.97;;;2.83;;
3407;SDS011;1717;50.240;8.406;2023-06-26T14:59:54;3.87;;;2.47;;
3407;SDS011;1717;50.240;8.406;2023-06-26T15:02:21;8.67;;;2.60;;
3407;SDS011;1717;50.240;8.406;2023-06-26T15:04:48;5.63;;;2.50;;
3407;SDS011;1717;50.240;8.406;2023-06-26T15:07:16;5.50;;;2.40;;
3407;SDS011;1717;50.240;8.406;2023-06-26T15:09:43;4.20;;;2.40;;
3407;SDS011;1717;50.240;8.406;2023-06-26T15:12:10;9.63;;;2.83;;
3407;SDS011;1717;50.240;8.406;2023-06-26T15:14:37;2.50;;;2.30;;
3407;SDS011;1717;50.240;8.406;2023-06-26T15:17:04;3.47;;;2.50;;
3407;SDS011;1717;50.240;8.406;2023-06-26T15:19:31;4.10;;;2.67;;